Time;durP1;ratioP1;P1;durP2;ratioP2;P2;SDS_P1;SDS_P2;PMS_P1;PMS_P2;Temp;Humidity;BMP_temperature;BMP_pressure;BME280_temperature;BME280_humidity;BME280_pressure;Samples;Min_cycle;Max_cycle;Signal;HPM_P1;HPM_P2
2022/01/09 00:00:26;;;;;;;17.92;11.77;;;4.00;99.90;;;;;;5071680;28;20549;-75
2022/01/09 00:02:52;;;;;;;18.05;12.40;;;4.00;99.90;;;;;;5072346;28;20040;-75
2022/01/09 00:05:19;;;;;;;18.75;13.15;;;4.00;99.90;;;;;;5072092;28;20131;-76
2022/01/09 00:07:46;;;;;;;15.98;11.88;;;4.00;99.90;;;;;;5072163;28;20040;-76
2022/01/09 00:10:12;;;;;;;16.23;11.90;;;4.00;99.90;;;;;;5072728;28;20056;-76
2022/01/09 00:12:38;;;;;;;19.48;12.88;;;4.00;99.90;;;;;;5056682;28;20055;-76
2022/01/09 00:15:05;;;;;;;17.42;11.68;;;4.00;99.90;;;;;;5072686;28;20131;-76
2022/01/09 00:17:31;;;;;;;16.65;12.00;;;4.00;99.90;;;;;;5072963;28;20044;-77
2022/01/09 00:19:57;;;;;;;18.63;13.13;;;4.00;99.90;;;;;;5072563;28;20051;-76
2022/01/09 00:22:40;;;;;;;18.20;13.10;;;4.00;99.90;;;;;;5072141;28;20052;-77
2022/01/09 00:25:07;;;;;;;20.50;13.82;;;4.00;99.90;;;;;;5072566;28;20589;-76
2022/01/09 00:27:32;;;;;;;16.35;12.13;;;4.00;99.90;;;;;;5089998;28;20044;-76
2022/01/09 00:29:58;;;;;;;18.27;12.55;;;4.00;99.90;;;;;;5072664;28;20602;-76
2022/01/09 00:32:24;;;;;;;16.35;12.80;;;4.00;99.90;;;;;;5055889;28;20089;-75
2022/01/09 00:34:49;;;;;;;20.02;13.63;;;4.00;99.90;;;;;;5072611;28;20093;-76
2022/01/09 00:37:15;;;;;;;18.50;13.18;;;4.10;99.90;;;;;;5072165;28;20044;-76
2022/01/09 00:39:41;;;;;;;22.00;13.50;;;4.10;99.90;;;;;;5056152;28;20044;-76
2022/01/09 00:42:06;;;;;;;16.20;12.90;;;4.10;99.90;;;;;;5071933;28;20539;-75
2022/01/09 00:44:32;;;;;;;18.30;12.85;;;4.10;99.90;;;;;;5072252;28;20036;-76
2022/01/09 00:47:00;;;;;;;19.70;13.30;;;4.00;99.90;;;;;;5055689;28;20044;-75
2022/01/09 00:49:26;;;;;;;20.63;14.25;;;4.10;99.90;;;;;;5072211;28;20048;-76
2022/01/09 00:51:51;;;;;;;17.88;13.88;;;4.10;99.90;;;;;;5071699;28;20561;-75
2022/01/09 00:54:17;;;;;;;19.63;14.00;;;4.10;99.90;;;;;;5055386;28;20047;-75
2022/01/09 00:56:43;;;;;;;17.85;13.32;;;4.10;99.90;;;;;;5072147;28;20078;-76
2022/01/09 00:59:08;;;;;;;19.88;13.80;;;4.10;99.90;;;;;;5071964;28;20054;-76
2022/01/09 01:01:34;;;;;;;17.73;13.23;;;4.10;99.90;;;;;;5071748;28;20048;-75
2022/01/09 01:03:59;;;;;;;20.77;14.35;;;4.10;99.90;;;;;;5071843;28;20036;-75
2022/01/09 01:06:25;;;;;;;17.75;13.38;;;4.10;99.90;;;;;;5071986;28;20048;-75
2022/01/09 01:08:51;;;;;;;20.25;15.02;;;4.20;99.90;;;;;;5055535;28;20048;-76
2022/01/09 01:11:16;;;;;;;20.40;14.48;;;4.10;99.90;;;;;;5071142;28;20076;-75
2022/01/09 01:13:42;;;;;;;17.77;13.48;;;4.20;99.90;;;;;;5072021;28;20134;-75
2022/01/09 01:16:07;;;;;;;19.98;13.63;;;4.20;99.90;;;;;;5071300;28;20047;-75
2022/01/09 01:18:33;;;;;;;20.25;15.45;;;4.20;99.90;;;;;;5051511;28;20168;-75
2022/01/09 01:21:00;;;;;;;20.95;15.38;;;4.10;99.90;;;;;;5051696;28;20033;-75
2022/01/09 01:23:26;;;;;;;21.55;14.73;;;4.20;99.90;;;;;;5035139;28;20086;-75
2022/01/09 01:25:52;;;;;;;19.45;14.70;;;4.20;99.90;;;;;;5051114;28;20048;-76
2022/01/09 01:28:19;;;;;;;18.08;12.85;;;4.20;99.90;;;;;;5051287;28;20051;-76
2022/01/09 01:30:44;;;;;;;18.55;13.60;;;4.20;99.90;;;;;;5035336;28;20066;-76
2022/01/09 01:33:10;;;;;;;22.58;14.88;;;4.10;99.90;;;;;;5035092;28;20490;-76
2022/01/09 01:35:36;;;;;;;19.48;14.32;;;4.20;99.90;;;;;;5035134;28;20049;-76
2022/01/09 01:38:02;;;;;;;19.48;14.30;;;4.20;99.90;;;;;;5034290;28;20633;-75
2022/01/09 01:40:27;;;;;;;18.60;13.63;;;4.20;99.90;;;;;;5051071;28;20085;-75
2022/01/09 01:42:53;;;;;;;17.77;13.88;;;4.20;99.90;;;;;;5051552;28;20052;-76
2022/01/09 01:45:19;;;;;;;18.08;13.48;;;4.10;99.90;;;;;;5051239;28;20041;-76
2022/01/09 01:47:45;;;;;;;17.88;13.27;;;4.20;99.90;;;;;;5035169;28;20079;-76
2022/01/09 01:50:13;;;;;;;20.60;14.52;;;4.20;99.90;;;;;;5034926;28;20483;-75
2022/01/09 01:52:43;;;;;;;16.65;13.18;;;4.20;99.90;;;;;;5051049;28;20058;-75
2022/01/09 01:55:11;;;;;;;19.13;12.98;;;4.20;99.90;;;;;;5051240;28;20048;-75
2022/01/09 01:57:42;;;;;;;17.60;13.75;;;4.20;99.90;;;;;;5051677;28;20418;-75
2022/01/09 02:00:12;;;;;;;17.63;13.13;;;4.20;99.90;;;;;;5051577;28;20175;-75
2022/01/09 02:02:39;;;;;;;19.02;13.25;;;4.20;99.90;;;;;;5051510;28;20048;-75
2022/01/09 02:05:06;;;;;;;18.35;13.45;;;4.20;99.90;;;;;;5034387;28;20053;-76
2022/01/09 02:07:33;;;;;;;18.92;14.00;;;4.20;99.90;;;;;;5051047;28;20186;-75
2022/01/09 02:09:59;;;;;;;19.60;13.55;;;4.20;99.90;;;;;;5047808;28;20064;-75
2022/01/09 02:12:25;;;;;;;19.60;14.63;;;4.20;99.90;;;;;;5031311;28;20049;-75
2022/01/09 02:14:51;;;;;;;22.17;15.40;;;4.20;99.90;;;;;;5047518;28;20049;-75
2022/01/09 02:17:19;;;;;;;19.15;14.13;;;4.20;99.90;;;;;;5047653;28;20816;-74
2022/01/09 02:19:58;;;;;;;23.70;15.98;;;4.20;99.90;;;;;;5047689;28;20491;-75
2022/01/09 02:22:27;;;;;;;22.30;14.65;;;4.20;99.90;;;;;;5047567;28;20558;-75
2022/01/09 02:24:53;;;;;;;19.85;13.88;;;4.20;99.90;;;;;;5031268;28;20048;-75
2022/01/09 02:27:18;;;;;;;25.65;15.90;;;4.20;99.90;;;;;;5047418;28;20052;-76
2022/01/09 02:29:47;;;;;;;24.00;16.50;;;4.20;99.90;;;;;;5048029;28;20103;-75
2022/01/09 02:32:16;;;;;;;25.17;16.60;;;4.20;99.90;;;;;;5047616;28;20052;-75
2022/01/09 02:34:46;;;;;;;23.58;15.43;;;4.20;99.90;;;;;;5030303;28;20094;-75
2022/01/09 02:37:11;;;;;;;26.52;17.38;;;4.20;99.90;;;;;;5030958;28;20119;-76
2022/01/09 02:39:37;;;;;;;25.55;16.45;;;4.20;99.90;;;;;;5047816;28;20442;-76
2022/01/09 02:42:03;;;;;;;23.17;16.30;;;4.20;99.90;;;;;;5047762;28;20123;-75
2022/01/09 02:44:28;;;;;;;26.00;17.50;;;4.20;99.90;;;;;;5047234;28;20049;-75
2022/01/09 02:47:05;;;;;;;29.20;17.48;;;4.30;99.90;;;;;;5047528;28;20534;-76
2022/01/09 02:49:32;;;;;;;25.25;16.83;;;4.20;99.90;;;;;;5031128;28;20084;-76
2022/01/09 02:51:58;;;;;;;27.13;18.48;;;4.20;99.90;;;;;;5034720;28;20041;-75
2022/01/09 02:57:08;;;;;;;;;;;4.30;99.90;;;;;;5051787;28;20408;-75
2022/01/09 02:59:34;;;;;;;30.65;18.27;;;4.30;99.90;;;;;;5050783;28;19920;-75
2022/01/09 03:01:59;;;;;;;25.35;16.63;;;4.30;99.90;;;;;;5051006;28;20407;-75
2022/01/09 03:04:25;;;;;;;24.70;16.15;;;4.30;99.90;;;;;;5051202;28;20048;-75
2022/01/09 03:06:51;;;;;;;25.17;16.63;;;4.30;99.90;;;;;;5051131;28;20634;-75
2022/01/09 03:09:17;;;;;;;29.00;16.83;;;4.30;99.90;;;;;;5053384;28;20067;-74
2022/01/09 03:11:45;;;;;;;;;;;4.30;99.90;;;;;;5054610;28;20051;-76
2022/01/09 03:14:10;;;;;;;;;;;4.40;99.90;;;;;;5054654;28;19924;-76
2022/01/09 03:16:36;;;;;;;;;;;4.30;99.90;;;;;;5075650;28;19945;-76
2022/01/09 03:19:01;;;;;;;;;;;4.40;99.90;;;;;;5074353;28;19985;-75
2022/01/09 03:21:27;;;;;;;;;;;4.40;99.90;;;;;;5074370;28;19920;-76
2022/01/09 03:23:52;;;;;;;;;;;4.40;99.90;;;;;;5057711;28;19924;-75
2022/01/09 03:26:18;;;;;;;;;;;4.40;99.90;;;;;;5074343;28;19984;-76
2022/01/09 03:28:43;;;;;;;;;;;4.40;99.90;;;;;;5074239;28;19919;-76
2022/01/09 03:31:09;;;;;;;;;;;4.40;99.90;;;;;;5074238;28;19920;-75
2022/01/09 03:33:34;;;;;;;;;;;4.40;99.90;;;;;;5074183;28;20592;-76
2022/01/09 03:36:00;;;;;;;;;;;4.40;99.90;;;;;;5075782;28;20006;-75
2022/01/09 03:38:25;;;;;;;;;;;4.40;99.90;;;;;;5060673;28;20353;-76
2022/01/09 03:40:51;;;;;;;;;;;4.40;99.90;;;;;;5069459;28;19928;-76
2022/01/09 03:43:17;;;;;;;;;;;4.40;99.90;;;;;;5053851;28;19927;-75
2022/01/09 03:45:43;;;;;;;;;;;4.40;99.90;;;;;;5046496;28;19920;-76
2022/01/09 03:48:08;;;;;;;;;;;4.40;99.90;;;;;;5074230;28;19920;-76
2022/01/09 03:50:34;;;;;;;;;;;4.40;99.90;;;;;;5074097;28;20385;-76
2022/01/09 03:52:59;;;;;;;;;;;4.50;99.90;;;;;;5073763;28;19920;-76
2022/01/09 03:55:28;;;;;;;;;;;4.50;99.90;;;;;;5054154;28;19924;-75
2022/01/09 03:57:54;;;;;;;;;;;4.50;99.90;;;;;;5053598;28;19927;-76
2022/01/09 04:00:20;;;;;;;;;;;4.60;99.90;;;;;;5036964;28;19946;-75
2022/01/09 04:02:48;;;;;;;;;;;4.60;99.90;;;;;;5052587;28;19921;-76
2022/01/09 04:05:14;;;;;;;;;;;4.70;99.90;;;;;;5053503;28;19921;-75
2022/01/09 04:07:40;;;;;;;;;;;4.70;99.90;;;;;;5036379;28;19924;-76
2022/01/09 04:10:06;;;;;;;;;;;4.70;99.90;;;;;;5053281;28;19931;-76
2022/01/09 04:12:35;;;;;;;;;;;4.80;99.90;;;;;;5056325;28;19950;-76
2022/01/09 04:15:06;;;;;;;;;;;4.80;99.90;;;;;;5073381;28;20378;-76
2022/01/09 04:17:54;;;;;;;18.02;4.55;;;4.90;99.90;;;;;;5072777;28;20448;-76
2022/01/09 04:20:35;;;;;;;26.30;5.68;;;4.90;99.90;;;;;;5070980;28;20446;-76
2022/01/09 04:23:01;;;;;;;24.77;4.85;;;5.00;99.90;;;;;;5055093;28;20405;-76
2022/01/09 04:25:27;;;;;;;28.83;4.97;;;5.00;99.90;;;;;;5071523;28;20520;-76
2022/01/09 04:27:53;;;;;;;27.13;4.90;;;5.00;99.90;;;;;;5054735;28;20760;-76
2022/01/09 04:30:19;;;;;;;25.13;4.65;;;5.10;99.90;;;;;;5071080;28;20406;-76
2022/01/09 04:32:45;;;;;;;29.17;4.53;;;5.10;99.90;;;;;;5071133;28;20398;-76
2022/01/09 04:35:11;;;;;;;35.70;4.83;;;5.20;99.90;;;;;;5054680;28;20459;-76
2022/01/09 04:37:37;;;;;;;34.33;5.30;;;5.10;99.90;;;;;;5071270;28;20412;-76
2022/01/09 04:40:05;;;;;;;35.47;5.30;;;5.20;99.90;;;;;;5071463;28;20495;-75
2022/01/09 04:42:42;;;;;;;35.35;5.00;;;5.10;99.90;;;;;;5070862;28;20459;-76
2022/01/09 04:45:08;;;;;;;32.55;4.68;;;5.20;99.90;;;;;;5063718;28;20461;-77
2022/01/09 04:47:35;;;;;;;36.78;6.10;;;5.20;99.90;;;;;;5051008;28;20473;-76
2022/01/09 04:50:01;;;;;;;30.17;5.28;;;5.20;99.90;;;;;;5050579;28;20410;-76
2022/01/09 04:52:33;;;;;;;33.38;5.70;;;5.20;99.90;;;;;;5050882;28;20400;-76
2022/01/09 04:54:59;;;;;;;36.20;5.15;;;5.20;99.90;;;;;;5051007;28;20415;-76
2022/01/09 04:57:24;;;;;;;37.13;5.25;;;5.30;99.90;;;;;;5033858;28;20955;-76
2022/01/09 04:59:50;;;;;;;37.10;5.60;;;5.30;99.90;;;;;;5050785;28;20420;-76
2022/01/09 05:02:16;;;;;;;37.00;6.40;;;5.30;99.90;;;;;;5050707;28;20743;-76
2022/01/09 05:04:41;;;;;;;48.33;6.82;;;5.30;99.90;;;;;;5050214;28;20755;-76
2022/01/09 05:07:07;;;;;;;45.07;6.63;;;5.40;99.90;;;;;;5049626;28;20506;-76
2022/01/09 05:09:32;;;;;;;47.05;7.70;;;5.40;99.90;;;;;;5024467;28;20455;-76
2022/01/09 05:11:58;;;;;;;46.70;8.67;;;5.40;99.90;;;;;;5026220;28;20407;-76
2022/01/09 05:14:24;;;;;;;45.30;8.40;;;5.50;99.90;;;;;;5026461;28;20453;-77
2022/01/09 05:16:50;;;;;;;50.15;9.45;;;5.60;99.90;;;;;;5026166;28;20407;-76
2022/01/09 05:19:22;;;;;;;54.15;8.32;;;5.70;99.90;;;;;;5026228;28;20403;-76
2022/01/09 05:21:49;;;;;;;49.27;8.63;;;5.80;99.90;;;;;;5009776;28;20510;-76
2022/01/09 05:24:15;;;;;;;51.75;8.75;;;5.80;99.90;;;;;;5026007;28;20417;-76
2022/01/09 05:26:41;;;;;;;52.63;8.60;;;5.90;99.90;;;;;;5025902;28;20435;-76
2022/01/09 05:29:07;;;;;;;52.67;8.35;;;5.90;99.90;;;;;;5026547;28;20419;-76
2022/01/09 05:31:32;;;;;;;39.87;7.67;;;5.90;99.90;;;;;;5027188;28;20429;-76
2022/01/09 05:33:58;;;;;;;51.10;7.78;;;5.90;99.90;;;;;;5026915;28;20411;-76
2022/01/09 05:36:23;;;;;;;49.73;7.80;;;5.90;99.90;;;;;;5026988;28;20495;-77
2022/01/09 05:38:49;;;;;;;45.00;7.63;;;5.90;99.90;;;;;;5010598;28;20500;-77
2022/01/09 05:41:15;;;;;;;43.13;7.78;;;5.90;99.90;;;;;;5010384;28;21016;-76
2022/01/09 05:43:41;;;;;;;39.17;7.90;;;5.90;99.90;;;;;;5027441;28;20421;-77
2022/01/09 05:46:06;;;;;;;45.15;7.18;;;5.90;99.90;;;;;;5010229;28;20431;-76
2022/01/09 05:48:32;;;;;;;41.72;7.38;;;5.90;99.90;;;;;;5026829;28;20442;-77
2022/01/09 05:50:58;;;;;;;42.53;6.63;;;5.90;99.90;;;;;;5027210;28;20468;-76
2022/01/09 05:53:24;;;;;;;38.55;6.43;;;5.90;99.90;;;;;;5010281;28;20413;-76
2022/01/09 05:55:50;;;;;;;36.07;5.87;;;6.00;99.90;;;;;;5026193;28;20469;-77
2022/01/09 05:58:15;;;;;;;37.15;5.97;;;6.00;99.90;;;;;;5027055;28;20546;-77
2022/01/09 06:00:41;;;;;;;37.90;6.65;;;5.90;99.90;;;;;;5026890;28;20411;-76
2022/01/09 06:03:06;;;;;;;38.37;6.33;;;5.90;99.90;;;;;;5026917;28;21023;-76
2022/01/09 06:05:32;;;;;;;35.10;5.80;;;5.90;99.90;;;;;;5009961;28;20956;-77
2022/01/09 06:07:58;;;;;;;28.33;5.23;;;5.90;99.90;;;;;;5026962;28;20406;-76
2022/01/09 06:10:23;;;;;;;32.50;5.47;;;5.90;99.90;;;;;;5038631;28;20496;-77
2022/01/09 06:12:49;;;;;;;35.80;6.20;;;5.90;99.90;;;;;;5046111;28;20505;-77
2022/01/09 06:15:14;;;;;;;30.53;5.60;;;5.90;99.90;;;;;;5046976;28;20409;-77
2022/01/09 06:17:43;;;;;;;35.00;5.63;;;5.90;99.90;;;;;;5030208;28;20406;-76
2022/01/09 06:20:11;;;;;;;28.55;5.07;;;6.00;99.90;;;;;;5046123;28;20401;-76
2022/01/09 06:22:41;;;;;;;40.13;6.22;;;6.00;99.90;;;;;;5030252;28;20911;-77
2022/01/09 06:25:08;;;;;;;30.63;5.50;;;6.00;99.90;;;;;;5048193;28;20409;-76
2022/01/09 06:27:34;;;;;;;34.13;5.70;;;6.00;99.90;;;;;;5033005;28;20432;-76
2022/01/09 06:30:00;;;;;;;33.75;5.80;;;5.90;99.90;;;;;;5050326;28;20393;-76
2022/01/09 06:32:25;;;;;;;31.38;5.40;;;6.00;99.90;;;;;;5050535;28;20401;-77
2022/01/09 06:34:51;;;;;;;29.57;5.07;;;6.00;99.90;;;;;;5050091;28;20409;-77
2022/01/09 06:37:17;;;;;;;30.60;5.30;;;6.00;99.90;;;;;;5049983;28;20524;-76
2022/01/09 06:39:43;;;;;;;33.30;5.78;;;6.00;99.90;;;;;;5049390;28;20413;-76
2022/01/09 06:42:09;;;;;;;36.92;5.25;;;5.90;99.90;;;;;;5049075;28;20441;-77
2022/01/09 06:44:35;;;;;;;33.20;5.65;;;6.00;99.90;;;;;;5048565;28;20447;-77
2022/01/09 06:47:01;;;;;;;33.35;5.53;;;6.00;99.90;;;;;;5049279;28;20818;-76
2022/01/09 06:49:27;;;;;;;28.38;4.70;;;6.00;99.90;;;;;;5049856;28;20492;-77
2022/01/09 06:51:52;;;;;;;28.83;5.33;;;6.00;99.90;;;;;;5049147;28;20459;-76
2022/01/09 06:54:18;;;;;;;35.00;5.63;;;6.00;99.90;;;;;;5050056;28;20455;-76
2022/01/09 06:56:44;;;;;;;32.97;5.72;;;6.00;99.90;;;;;;5049968;28;20413;-76
2022/01/09 06:59:09;;;;;;;32.27;5.53;;;6.00;99.90;;;;;;5033543;28;20763;-76
2022/01/09 07:01:35;;;;;;;32.37;5.00;;;6.00;99.90;;;;;;5032904;28;20492;-77
2022/01/09 07:04:00;;;;;;;28.27;4.63;;;6.00;99.90;;;;;;5049654;28;20410;-77
2022/01/09 07:06:26;;;;;;;33.30;5.23;;;5.90;99.90;;;;;;5049128;28;20801;-76
2022/01/09 07:08:52;;;;;;;28.90;4.95;;;5.90;99.90;;;;;;5049852;28;20413;-77
2022/01/09 07:11:18;;;;;;;29.83;5.32;;;5.90;99.90;;;;;;5069004;28;20906;-76
2022/01/09 07:13:43;;;;;;;26.53;5.00;;;5.90;99.90;;;;;;5069676;28;20816;-76
2022/01/09 07:16:09;;;;;;;29.45;5.53;;;5.90;99.90;;;;;;5069325;28;20418;-77
2022/01/09 07:18:35;;;;;;;25.27;4.63;;;5.90;99.90;;;;;;5069390;28;20404;-77
2022/01/09 07:21:02;;;;;;;28.33;4.70;;;5.90;99.90;;;;;;5069738;28;20411;-77
2022/01/09 07:23:28;;;;;;;25.00;3.92;;;5.90;99.90;;;;;;5069270;28;20419;-77
2022/01/09 07:25:53;;;;;;;27.67;4.53;;;5.90;99.90;;;;;;5069512;28;20427;-77
2022/01/09 07:28:19;;;;;;;29.60;4.78;;;5.90;99.90;;;;;;5068619;28;20400;-76
2022/01/09 07:30:44;;;;;;;25.47;5.00;;;5.90;99.90;;;;;;5052967;28;20404;-77
2022/01/09 07:33:10;;;;;;;20.23;4.15;;;5.90;99.90;;;;;;5068889;28;20403;-77
2022/01/09 07:35:36;;;;;;;28.15;4.65;;;5.90;99.90;;;;;;5068669;28;20406;-77
2022/01/09 07:38:02;;;;;;;21.43;3.90;;;5.90;99.90;;;;;;5067999;28;20777;-77
2022/01/09 07:40:28;;;;;;;22.85;4.20;;;5.90;99.90;;;;;;5068841;28;20420;-77
2022/01/09 07:42:54;;;;;;;23.42;3.85;;;5.90;99.90;;;;;;5052255;28;20396;-77
2022/01/09 07:45:24;;;;;;;22.00;4.03;;;5.90;99.90;;;;;;5060501;28;20406;-77
2022/01/09 07:47:50;;;;;;;25.60;4.60;;;5.90;99.90;;;;;;5048963;28;20433;-77
2022/01/09 07:50:16;;;;;;;28.07;4.37;;;5.90;99.90;;;;;;5048161;28;20588;-77
2022/01/09 07:52:42;;;;;;;25.98;4.53;;;5.80;99.90;;;;;;5048896;28;20979;-77
2022/01/09 07:55:08;;;;;;;29.83;4.47;;;5.80;99.90;;;;;;5049146;28;20418;-77
2022/01/09 07:57:35;;;;;;;26.77;4.07;;;5.80;99.90;;;;;;5048735;28;20455;-77
2022/01/09 08:00:03;;;;;;;25.33;3.85;;;5.80;99.90;;;;;;5047980;28;20908;-76
2022/01/09 08:02:29;;;;;;;23.80;4.38;;;5.80;99.90;;;;;;5048879;28;20768;-77
2022/01/09 08:04:54;;;;;;;20.40;3.97;;;5.70;99.90;;;;;;5048543;28;20760;-77
2022/01/09 08:07:20;;;;;;;28.10;4.77;;;5.80;99.90;;;;;;5048350;28;20437;-77
2022/01/09 08:09:49;;;;;;;29.77;4.57;;;5.70;99.90;;;;;;5041053;28;20476;-77
2022/01/09 08:12:15;;;;;;;27.35;4.13;;;5.70;99.90;;;;;;5011795;28;20526;-77
2022/01/09 08:14:41;;;;;;;30.80;5.07;;;5.70;99.90;;;;;;5028299;28;20498;-77
2022/01/09 08:17:07;;;;;;;26.33;4.47;;;5.70;99.90;;;;;;5027927;28;20457;-77
2022/01/09 08:19:35;;;;;;;20.48;3.85;;;5.70;99.90;;;;;;5011708;28;20407;-77
2022/01/09 08:22:01;;;;;;;28.63;4.68;;;5.70;99.90;;;;;;5027945;28;20766;-77
2022/01/09 08:24:27;;;;;;;28.63;4.40;;;5.70;99.90;;;;;;5028210;28;20404;-77
2022/01/09 08:26:53;;;;;;;21.50;3.50;;;5.70;99.90;;;;;;5028226;28;20461;-77
2022/01/09 08:29:18;;;;;;;25.20;4.03;;;5.80;99.90;;;;;;5028353;28;20893;-77
2022/01/09 08:31:44;;;;;;;20.35;3.92;;;5.80;99.90;;;;;;5011800;28;20956;-77
2022/01/09 08:34:10;;;;;;;24.85;4.90;;;5.80;99.90;;;;;;5028387;28;20506;-76
2022/01/09 08:36:36;;;;;;;23.10;3.75;;;5.80;99.90;;;;;;5028004;28;20984;-77
2022/01/09 08:39:03;;;;;;;25.38;4.00;;;5.80;99.90;;;;;;5028117;28;20964;-77
2022/01/09 08:41:29;;;;;;;27.13;4.63;;;5.70;99.90;;;;;;5028072;28;20407;-77
2022/01/09 08:43:55;;;;;;;29.30;5.00;;;5.70;99.90;;;;;;5027434;28;20477;-76
2022/01/09 08:46:20;;;;;;;24.83;3.90;;;5.70;99.90;;;;;;5027790;28;20945;-77
2022/01/09 08:48:46;;;;;;;26.30;4.55;;;5.80;99.90;;;;;;5027295;28;20399;-77
2022/01/09 08:51:11;;;;;;;28.33;4.33;;;5.70;99.90;;;;;;5027853;28;20949;-77
2022/01/09 08:53:37;;;;;;;23.65;4.32;;;5.70;99.90;;;;;;5027847;28;20451;-77
2022/01/09 08:56:04;;;;;;;25.40;4.27;;;5.70;99.90;;;;;;5027717;28;20442;-77
2022/01/09 08:58:31;;;;;;;24.40;4.28;;;5.70;99.90;;;;;;5027716;28;20890;-77
2022/01/09 09:00:56;;;;;;;29.00;4.43;;;5.70;99.90;;;;;;5027589;28;20407;-76
2022/01/09 09:03:23;;;;;;;21.23;4.20;;;5.70;99.90;;;;;;5027391;28;20762;-77
2022/01/09 09:05:49;;;;;;;23.38;3.58;;;5.70;99.90;;;;;;5027126;28;20468;-77
2022/01/09 09:08:14;;;;;;;18.83;3.33;;;5.70;99.90;;;;;;5011487;28;20875;-77
2022/01/09 09:10:40;;;;;;;18.40;3.10;;;5.70;99.90;;;;;;5041781;28;20524;-76
2022/01/09 09:13:06;;;;;;;12.05;2.45;;;5.80;99.90;;;;;;5030854;28;20405;-77
2022/01/09 09:15:32;;;;;;;14.32;2.10;;;5.80;99.90;;;;;;5030606;28;20801;-77
2022/01/09 09:17:58;;;;;;;13.35;2.33;;;5.80;99.90;;;;;;5047356;28;20795;-77
2022/01/09 09:20:24;;;;;;;12.75;2.35;;;5.80;99.90;;;;;;5047500;28;20421;-76
2022/01/09 09:22:50;;;;;;;13.45;2.03;;;5.80;99.90;;;;;;5047049;28;20799;-77
2022/01/09 09:25:16;;;;;;;13.30;2.15;;;5.80;99.90;;;;;;5030328;28;20408;-77
2022/01/09 09:27:42;;;;;;;14.50;2.25;;;5.90;99.90;;;;;;5047185;28;20433;-77
2022/01/09 09:30:10;;;;;;;15.18;2.75;;;5.90;99.90;;;;;;5030684;28;20405;-77
2022/01/09 09:32:36;;;;;;;16.52;2.30;;;6.00;99.90;;;;;;5046637;28;20425;-77
2022/01/09 09:35:03;;;;;;;13.55;1.92;;;6.00;99.90;;;;;;5046955;28;20409;-77
2022/01/09 09:37:29;;;;;;;13.63;2.10;;;6.00;99.90;;;;;;5042852;28;20957;-77
2022/01/09 09:39:55;;;;;;;13.25;2.10;;;6.10;99.90;;;;;;5045636;28;20409;-76
2022/01/09 09:42:21;;;;;;;17.05;2.72;;;6.10;99.90;;;;;;5045421;28;20401;-77
2022/01/09 09:44:46;;;;;;;12.53;2.60;;;6.20;99.90;;;;;;5044904;28;20413;-77
2022/01/09 09:47:13;;;;;;;16.77;2.43;;;6.20;99.90;;;;;;5045078;28;20430;-75
2022/01/09 09:49:39;;;;;;;17.20;3.20;;;6.20;99.90;;;;;;5037622;28;20463;-76
2022/01/09 09:52:07;;;;;;;17.58;3.55;;;6.20;99.90;;;;;;5045990;28;20445;-76
2022/01/09 09:54:33;;;;;;;17.30;3.40;;;6.20;99.90;;;;;;5045475;28;21009;-77
2022/01/09 09:56:59;;;;;;;20.52;4.25;;;6.20;99.90;;;;;;5046059;28;20412;-77
2022/01/09 09:59:25;;;;;;;22.63;4.40;;;6.20;99.90;;;;;;5045663;28;20405;-76
2022/01/09 10:01:51;;;;;;;24.50;3.95;;;6.10;99.90;;;;;;5050113;28;20459;-76
2022/01/09 10:04:17;;;;;;;24.08;4.00;;;6.20;99.90;;;;;;5045162;28;20405;-77
2022/01/09 10:06:48;;;;;;;20.43;3.50;;;6.10;99.90;;;;;;5049070;28;20511;-77
2022/01/09 10:09:21;;;;;;;24.35;4.82;;;6.20;99.90;;;;;;5054087;28;20471;-77
2022/01/09 10:11:51;;;;;;;25.30;4.25;;;6.10;99.90;;;;;;5057222;28;20406;-76
2022/01/09 10:14:22;;;;;;;19.08;3.75;;;6.20;99.90;;;;;;5073747;28;20513;-75
2022/01/09 10:17:11;;;;;;;26.33;4.72;;;6.20;99.90;;;;;;5073676;28;20939;-76
2022/01/09 10:19:45;;;;;;;17.98;3.22;;;6.20;99.90;;;;;;5052689;28;20538;-75
2022/01/09 10:22:24;;;;;;;19.85;3.75;;;6.30;99.90;;;;;;5070759;28;20402;-75
2022/01/09 10:24:50;;;;;;;22.10;5.07;;;6.30;99.90;;;;;;5072895;28;20425;-75
2022/01/09 10:27:30;;;;;;;22.58;3.90;;;6.40;99.90;;;;;;5066321;28;20425;-76
2022/01/09 10:29:56;;;;;;;23.67;4.20;;;6.40;99.90;;;;;;5073075;28;20414;-76
2022/01/09 10:32:30;;;;;;;18.60;3.67;;;6.40;99.90;;;;;;5073241;28;20406;-75
2022/01/09 10:35:08;;;;;;;20.50;3.33;;;6.50;99.90;;;;;;5056892;28;20455;-76
2022/01/09 10:37:35;;;;;;;17.17;3.25;;;6.50;99.90;;;;;;5055112;28;20425;-76
2022/01/09 10:40:02;;;;;;;23.27;3.50;;;6.50;99.90;;;;;;5052974;28;20414;-75
2022/01/09 10:42:28;;;;;;;19.37;4.00;;;6.50;99.90;;;;;;5069632;28;20925;-75
2022/01/09 10:44:54;;;;;;;24.10;3.87;;;6.50;99.90;;;;;;5056436;28;20446;-75
2022/01/09 10:47:20;;;;;;;17.60;2.97;;;6.60;99.90;;;;;;5052196;28;20778;-75
2022/01/09 10:49:49;;;;;;;20.15;3.08;;;6.60;99.90;;;;;;5069847;28;20750;-76
2022/01/09 10:52:25;;;;;;;18.03;3.20;;;6.60;99.90;;;;;;5073433;28;20912;-75
2022/01/09 10:54:52;;;;;;;19.70;3.30;;;6.70;99.90;;;;;;5072310;28;20406;-75
2022/01/09 10:57:30;;;;;;;17.13;2.87;;;6.80;99.90;;;;;;5072962;28;20486;-75
2022/01/09 11:00:14;;;;;;;18.85;3.55;;;7.00;99.90;;;;;;5054828;28;20422;-76
2022/01/09 11:02:40;;;;;;;17.45;2.95;;;7.00;99.90;;;;;;5069919;28;20459;-76
2022/01/09 11:05:06;;;;;;;22.92;4.05;;;7.10;99.90;;;;;;5069349;28;20438;-76
2022/01/09 11:07:32;;;;;;;17.60;3.17;;;7.20;99.90;;;;;;5069393;28;20447;-76
2022/01/09 11:09:59;;;;;;;21.70;3.38;;;7.30;99.90;;;;;;5068973;28;20408;-75
2022/01/09 11:12:32;;;;;;;16.65;2.67;;;7.50;99.90;;;;;;5061751;28;20448;-73
2022/01/09 11:15:02;;;;;;;14.02;2.97;;;7.70;99.90;;;;;;5053686;28;20044;-77
2022/01/09 11:17:29;;;;;;;17.67;2.72;;;7.90;99.90;;;;;;5054336;28;20384;-77
2022/01/09 11:19:55;;;;;;;17.80;2.85;;;8.10;99.90;;;;;;5054460;28;20079;-77
2022/01/09 11:22:21;;;;;;;17.98;3.08;;;8.30;99.90;;;;;;5053899;28;20048;-76
2022/01/09 11:24:56;;;;;;;14.90;2.53;;;8.50;99.90;;;;;;5051990;28;20411;-75
2022/01/09 11:27:43;;;;;;;13.88;2.08;;;8.70;99.90;;;;;;5037309;28;20139;-77
2022/01/09 11:30:20;;;;;;;12.20;1.83;;;8.90;99.90;;;;;;5053793;28;20091;-77
2022/01/09 11:33:08;;;;;;;12.50;2.70;;;8.90;99.90;;;;;;5053495;28;20514;-77
2022/01/09 11:36:00;;;;;;;10.07;1.88;;;8.70;99.90;;;;;;5053546;28;20071;-77
2022/01/09 11:38:32;;;;;;;;;;;8.50;99.90;;;;;;5037371;28;20052;-77
2022/01/09 11:41:16;;;;;;;;;;;8.30;99.90;;;;;;5054238;28;20425;-77
2022/01/09 11:43:51;;;;;;;;;;;8.00;99.90;;;;;;5037296;28;19920;-77
2022/01/09 11:46:17;;;;;;;;;;;7.70;99.90;;;;;;5053510;28;19926;-77
2022/01/09 11:48:51;;;;;;;;;;;7.50;99.90;;;;;;5057118;28;20356;-77
2022/01/09 11:51:20;;;;;;;;;;;7.30;99.90;;;;;;5057158;28;19927;-77
2022/01/09 11:53:58;;;;;;;;;;;7.20;99.90;;;;;;5073831;28;19919;-77
2022/01/09 11:56:43;;;;;;;;;;;7.30;99.90;;;;;;5074217;28;20358;-77
2022/01/09 11:59:19;;;;;;;;;;;7.40;99.90;;;;;;5074181;28;19920;-77
2022/01/09 12:01:45;;;;;;;;;;;7.50;99.90;;;;;;5073806;28;20259;-76
2022/01/09 12:04:30;;;;;;;;;;;7.60;99.90;;;;;;5073118;28;19920;-78
2022/01/09 12:06:56;;;;;;;;;;;7.60;99.90;;;;;;5072419;28;19939;-77
2022/01/09 12:09:31;;;;;;;;;;;7.70;99.90;;;;;;5055241;28;19920;-77
2022/01/09 12:12:03;;;;;;;;;;;7.70;99.90;;;;;;5072492;28;19965;-77
2022/01/09 12:14:41;;;;;;;;;;;7.80;99.90;;;;;;5055672;28;20374;-77
2022/01/09 12:17:06;;;;;;;;;;;7.80;99.90;;;;;;5072275;28;19931;-77
2022/01/09 12:19:51;;;;;;;;;;;7.80;99.90;;;;;;5055654;28;19923;-77
2022/01/09 12:22:36;;;;;;;;;;;7.80;99.90;;;;;;5071339;28;19934;-77
2022/01/09 12:25:02;;;;;;;;;;;7.90;99.90;;;;;;5055520;28;20351;-77
2022/01/09 12:27:44;;;;;;;;;;;7.90;99.90;;;;;;5072678;28;19962;-76
2022/01/09 12:30:30;;;;;;;;;;;8.00;99.90;;;;;;5056315;28;20011;-77
2022/01/09 12:32:56;;;;;;;;;;;7.90;99.90;;;;;;5055517;28;19928;-77
2022/01/09 12:35:22;;;;;;;;;;;7.90;99.90;;;;;;5072836;28;19930;-77
2022/01/09 12:37:48;;;;;;;;;;;7.80;99.90;;;;;;5072823;28;19920;-77
2022/01/09 12:40:18;;;;;;;;;;;7.80;99.90;;;;;;5056487;28;20353;-77
2022/01/09 12:42:46;;;;;;;;;;;7.70;99.90;;;;;;5072830;28;19927;-77
2022/01/09 12:45:12;;;;;;;;;;;7.70;99.90;;;;;;5065737;28;19921;-77
2022/01/09 12:47:40;;;;;;;;;;;7.80;99.90;;;;;;5069530;28;19920;-77
2022/01/09 12:50:06;;;;;;;;;;;7.90;99.90;;;;;;5052607;28;19924;-77
2022/01/09 12:52:31;;;;;;;;;;;7.80;99.90;;;;;;5069465;28;19982;-77
2022/01/09 12:55:07;;;;;;;;;;;7.70;99.90;;;;;;5052493;28;19928;-77
2022/01/09 12:57:52;;;;;;;;;;;7.60;99.90;;;;;;5069713;28;19924;-77
2022/01/09 13:00:25;;;;;;;;;;;7.40;99.90;;;;;;5069473;28;19964;-78
2022/01/09 13:02:52;;;;;;;;;;;7.30;99.90;;;;;;5069653;28;20309;-77
2022/01/09 13:05:25;;;;;;;;;;;7.20;99.90;;;;;;5052039;28;20034;-77
2022/01/09 13:08:00;;;;;;;;;;;7.10;99.90;;;;;;5069084;28;19964;-77